sensor_id;sensor_type;location;lat;lon;timestamp;P1;durP1;ratioP1;P2;durP2;ratioP2
62933;SDS011;49038;47.600;19.242;2023-06-22T00:02:19;4.80;;;2.58;;
62933;SDS011;49038;47.600;19.242;2023-06-22T00:05:21;4.32;;;2.10;;
62933;SDS011;49038;47.600;19.242;2023-06-22T00:08:24;5.72;;;1.52;;
62933;SDS011;49038;47.600;19.242;2023-06-22T00:11:26;4.10;;;2.00;;
62933;SDS011;49038;47.600;19.242;2023-06-22T00:14:29;4.80;;;1.37;;
62933;SDS011;49038;47.600;19.242;2023-06-22T00:17:31;5.32;;;1.98;;
62933;SDS011;49038;47.600;19.242;2023-06-22T00:20:34;3.92;;;1.83;;
62933;SDS011;49038;47.600;19.242;2023-06-22T00:23:38;3.33;;;1.70;;
62933;SDS011;49038;47.600;19.242;2023-06-22T00:26:41;4.43;;;1.90;;
62933;SDS011;49038;47.600;19.242;2023-06-22T00:29:43;2.58;;;1.25;;
62933;SDS011;49038;47.600;19.242;2023-06-22T00:32:45;6.47;;;1.67;;
62933;SDS011;49038;47.600;19.242;2023-06-22T00:35:47;4.70;;;1.90;;
62933;SDS011;49038;47.600;19.242;2023-06-22T00:38:50;18.77;;;4.43;;
62933;SDS011;49038;47.600;19.242;2023-06-22T00:41:52;1.90;;;1.60;;
62933;SDS011;49038;47.600;19.242;2023-06-22T00:44:54;4.70;;;1.50;;
62933;SDS011;49038;47.600;19.242;2023-06-22T00:47:57;2.53;;;1.50;;
62933;SDS011;49038;47.600;19.242;2023-06-22T00:51:00;3.03;;;1.73;;
62933;SDS011;49038;47.600;19.242;2023-06-22T00:54:03;3.83;;;1.90;;
62933;SDS011;49038;47.600;19.242;2023-06-22T00:57:06;3.17;;;1.70;;
62933;SDS011;49038;47.600;19.242;2023-06-22T01:00:14;3.50;;;2.03;;
62933;SDS011;49038;47.600;19.242;2023-06-22T01:03:21;2.42;;;1.67;;
62933;SDS011;49038;47.600;19.242;2023-06-22T01:06:27;6.68;;;2.35;;
62933;SDS011;49038;47.600;19.242;2023-06-22T01:09:51;2.53;;;1.58;;
62933;SDS011;49038;47.600;19.242;2023-06-22T01:13:07;5.78;;;2.03;;
62933;SDS011;49038;47.600;19.242;2023-06-22T01:16:18;5.37;;;1.98;;
62933;SDS011;49038;47.600;19.242;2023-06-22T01:27:00;5.40;;;2.10;;
62933;SDS011;49038;47.600;19.242;2023-06-22T01:29:52;3.50;;;1.85;;
62933;SDS011;49038;47.600;19.242;2023-06-22T01:33:02;3.92;;;2.30;;
62933;SDS011;49038;47.600;19.242;2023-06-22T01:36:05;3.95;;;2.00;;
62933;SDS011;49038;47.600;19.242;2023-06-22T01:39:08;2.70;;;2.15;;
62933;SDS011;49038;47.600;19.242;2023-06-22T01:42:11;4.37;;;2.05;;
62933;SDS011;49038;47.600;19.242;2023-06-22T01:45:14;4.60;;;2.08;;
62933;SDS011;49038;47.600;19.242;2023-06-22T01:48:17;5.45;;;2.15;;
62933;SDS011;49038;47.600;19.242;2023-06-22T01:51:19;6.22;;;1.95;;
62933;SDS011;49038;47.600;19.242;2023-06-22T01:54:22;3.50;;;1.98;;
62933;SDS011;49038;47.600;19.242;2023-06-22T01:57:24;3.47;;;2.17;;
62933;SDS011;49038;47.600;19.242;2023-06-22T02:00:27;4.45;;;1.90;;
62933;SDS011;49038;47.600;19.242;2023-06-22T02:03:31;3.15;;;1.80;;
62933;SDS011;49038;47.600;19.242;2023-06-22T02:06:37;5.43;;;1.70;;
62933;SDS011;49038;47.600;19.242;2023-06-22T02:09:41;3.95;;;2.42;;
62933;SDS011;49038;47.600;19.242;2023-06-22T02:12:45;5.80;;;2.65;;
62933;SDS011;49038;47.600;19.242;2023-06-22T02:15:48;3.67;;;1.70;;
62933;SDS011;49038;47.600;19.242;2023-06-22T02:18:50;5.00;;;2.30;;
62933;SDS011;49038;47.600;19.242;2023-06-22T02:21:53;4.50;;;2.40;;
62933;SDS011;49038;47.600;19.242;2023-06-22T02:24:55;5.70;;;2.22;;
62933;SDS011;49038;47.600;19.242;2023-06-22T02:27:58;4.25;;;2.22;;
62933;SDS011;49038;47.600;19.242;2023-06-22T02:31:00;7.97;;;2.30;;
62933;SDS011;49038;47.600;19.242;2023-06-22T02:34:02;6.60;;;2.42;;
62933;SDS011;49038;47.600;19.242;2023-06-22T02:37:04;3.25;;;1.92;;
62933;SDS011;49038;47.600;19.242;2023-06-22T02:40:07;4.32;;;2.30;;
62933;SDS011;49038;47.600;19.242;2023-06-22T02:43:13;5.03;;;2.00;;
62933;SDS011;49038;47.600;19.242;2023-06-22T02:46:15;7.72;;;3.65;;
62933;SDS011;49038;47.600;19.242;2023-06-22T02:49:17;6.57;;;2.20;;
62933;SDS011;49038;47.600;19.242;2023-06-22T02:52:20;2.97;;;1.73;;
62933;SDS011;49038;47.600;19.242;2023-06-22T02:55:22;2.72;;;1.80;;
62933;SDS011;49038;47.600;19.242;2023-06-22T02:58:25;6.75;;;2.03;;
62933;SDS011;49038;47.600;19.242;2023-06-22T03:01:27;3.67;;;2.17;;
62933;SDS011;49038;47.600;19.242;2023-06-22T03:04:32;5.53;;;1.80;;
62933;SDS011;49038;47.600;19.242;2023-06-22T03:07:34;4.87;;;2.30;;
62933;SDS011;49038;47.600;19.242;2023-06-22T03:10:36;4.05;;;1.80;;
62933;SDS011;49038;47.600;19.242;2023-06-22T03:13:39;2.50;;;1.73;;
62933;SDS011;49038;47.600;19.242;2023-06-22T03:16:41;6.00;;;2.12;;
62933;SDS011;49038;47.600;19.242;2023-06-22T03:19:43;4.32;;;2.20;;
62933;SDS011;49038;47.600;19.242;2023-06-22T03:22:45;5.22;;;2.42;;
62933;SDS011;49038;47.600;19.242;2023-06-22T03:25:48;3.92;;;2.00;;
62933;SDS011;49038;47.600;19.242;2023-06-22T03:28:50;3.65;;;2.05;;
62933;SDS011;49038;47.600;19.242;2023-06-22T03:31:52;4.47;;;2.62;;
62933;SDS011;49038;47.600;19.242;2023-06-22T03:34:55;2.97;;;2.30;;
62933;SDS011;49038;47.600;19.242;2023-06-22T03:38:00;10.18;;;2.53;;
62933;SDS011;49038;47.600;19.242;2023-06-22T03:41:02;4.55;;;2.00;;
62933;SDS011;49038;47.600;19.242;2023-06-22T03:44:05;4.43;;;2.08;;
62933;SDS011;49038;47.600;19.242;2023-06-22T03:47:07;4.18;;;2.25;;
62933;SDS011;49038;47.600;19.242;2023-06-22T03:50:09;5.40;;;1.95;;
62933;SDS011;49038;47.600;19.242;2023-06-22T03:53:11;4.75;;;2.62;;
62933;SDS011;49038;47.600;19.242;2023-06-22T03:56:15;9.52;;;2.55;;
62933;SDS011;49038;47.600;19.242;2023-06-22T03:59:22;8.15;;;2.92;;
62933;SDS011;49038;47.600;19.242;2023-06-22T04:02:24;3.05;;;2.20;;
62933;SDS011;49038;47.600;19.242;2023-06-22T04:05:27;5.80;;;2.20;;
62933;SDS011;49038;47.600;19.242;2023-06-22T04:08:29;5.18;;;2.47;;
62933;SDS011;49038;47.600;19.242;2023-06-22T04:11:31;7.65;;;2.80;;
62933;SDS011;49038;47.600;19.242;2023-06-22T04:14:34;7.90;;;3.15;;
62933;SDS011;49038;47.600;19.242;2023-06-22T04:17:36;4.85;;;2.37;;
62933;SDS011;49038;47.600;19.242;2023-06-22T04:20:39;3.60;;;2.53;;
62933;SDS011;49038;47.600;19.242;2023-06-22T04:23:41;6.28;;;2.90;;
62933;SDS011;49038;47.600;19.242;2023-06-22T04:26:44;4.53;;;2.40;;
62933;SDS011;49038;47.600;19.242;2023-06-22T04:29:47;3.70;;;2.33;;
62933;SDS011;49038;47.600;19.242;2023-06-22T04:32:50;4.22;;;2.10;;
62933;SDS011;49038;47.600;19.242;2023-06-22T04:35:58;5.75;;;2.50;;
62933;SDS011;49038;47.600;19.242;2023-06-22T04:39:06;6.62;;;2.33;;
62933;SDS011;49038;47.600;19.242;2023-06-22T04:42:12;10.95;;;2.53;;
62933;SDS011;49038;47.600;19.242;2023-06-22T04:45:14;4.47;;;2.30;;
62933;SDS011;49038;47.600;19.242;2023-06-22T04:48:16;5.25;;;2.28;;
62933;SDS011;49038;47.600;19.242;2023-06-22T04:51:18;3.30;;;1.85;;
62933;SDS011;49038;47.600;19.242;2023-06-22T04:54:23;4.15;;;2.45;;
62933;SDS011;49038;47.600;19.242;2023-06-22T04:57:26;3.95;;;1.75;;
62933;SDS011;49038;47.600;19.242;2023-06-22T05:00:34;7.82;;;2.10;;
62933;SDS011;49038;47.600;19.242;2023-06-22T05:03:38;4.05;;;2.08;;
62933;SDS011;49038;47.600;19.242;2023-06-22T05:06:44;6.55;;;2.37;;
62933;SDS011;49038;47.600;19.242;2023-06-22T05:09:47;6.65;;;2.20;;
62933;SDS011;49038;47.600;19.242;2023-06-22T05:12:49;6.68;;;1.90;;
62933;SDS011;49038;47.600;19.242;2023-06-22T05:15:51;8.05;;;2.40;;
62933;SDS011;49038;47.600;19.242;2023-06-22T05:18:54;4.97;;;2.35;;
62933;SDS011;49038;47.600;19.242;2023-06-22T05:21:57;5.53;;;1.62;;
62933;SDS011;49038;47.600;19.242;2023-06-22T05:24:59;5.97;;;2.10;;
62933;SDS011;49038;47.600;19.242;2023-06-22T05:28:01;6.75;;;2.25;;
62933;SDS011;49038;47.600;19.242;2023-06-22T05:31:07;5.65;;;3.30;;
62933;SDS011;49038;47.600;19.242;2023-06-22T05:34:09;4.07;;;1.92;;
62933;SDS011;49038;47.600;19.242;2023-06-22T05:37:12;5.05;;;1.77;;
62933;SDS011;49038;47.600;19.242;2023-06-22T05:40:14;2.87;;;1.90;;
62933;SDS011;49038;47.600;19.242;2023-06-22T05:43:17;6.00;;;2.10;;
62933;SDS011;49038;47.600;19.242;2023-06-22T05:46:19;7.05;;;2.45;;
62933;SDS011;49038;47.600;19.242;2023-06-22T05:49:21;4.47;;;1.80;;
62933;SDS011;49038;47.600;19.242;2023-06-22T05:52:24;6.30;;;1.75;;
62933;SDS011;49038;47.600;19.242;2023-06-22T05:55:27;4.03;;;2.00;;
62933;SDS011;49038;47.600;19.242;2023-06-22T05:58:29;4.68;;;2.33;;
62933;SDS011;49038;47.600;19.242;2023-06-22T06:01:31;4.95;;;2.30;;
62933;SDS011;49038;47.600;19.242;2023-06-22T06:04:36;7.97;;;2.08;;
62933;SDS011;49038;47.600;19.242;2023-06-22T06:07:39;7.28;;;2.50;;
62933;SDS011;49038;47.600;19.242;2023-06-22T06:10:41;3.40;;;2.12;;
62933;SDS011;49038;47.600;19.242;2023-06-22T06:13:44;10.52;;;3.10;;
62933;SDS011;49038;47.600;19.242;2023-06-22T06:16:48;8.13;;;2.55;;
62933;SDS011;49038;47.600;19.242;2023-06-22T06:19:51;3.47;;;2.08;;
62933;SDS011;49038;47.600;19.242;2023-06-22T06:22:53;6.40;;;2.40;;
62933;SDS011;49038;47.600;19.242;2023-06-22T06:25:55;4.95;;;2.03;;
62933;SDS011;49038;47.600;19.242;2023-06-22T06:28:59;7.00;;;1.87;;
62933;SDS011;49038;47.600;19.242;2023-06-22T06:32:02;7.45;;;2.20;;
62933;SDS011;49038;47.600;19.242;2023-06-22T06:35:05;2.92;;;2.00;;
62933;SDS011;49038;47.600;19.242;2023-06-22T06:38:08;4.22;;;1.73;;
62933;SDS011;49038;47.600;19.242;2023-06-22T06:41:10;4.70;;;2.05;;
62933;SDS011;49038;47.600;19.242;2023-06-22T06:44:12;6.07;;;2.47;;
62933;SDS011;49038;47.600;19.242;2023-06-22T06:47:15;2.35;;;1.40;;
62933;SDS011;49038;47.600;19.242;2023-06-22T06:50:18;3.95;;;1.65;;
62933;SDS011;49038;47.600;19.242;2023-06-22T06:53:21;2.80;;;1.50;;
62933;SDS011;49038;47.600;19.242;2023-06-22T06:56:23;2.62;;;1.45;;
62933;SDS011;49038;47.600;19.242;2023-06-22T06:59:25;4.40;;;1.55;;
62933;SDS011;49038;47.600;19.242;2023-06-22T07:02:28;3.20;;;1.42;;
62933;SDS011;49038;47.600;19.242;2023-06-22T07:05:31;4.03;;;1.45;;
62933;SDS011;49038;47.600;19.242;2023-06-22T07:08:33;4.68;;;1.37;;
62933;SDS011;49038;47.600;19.242;2023-06-22T07:11:37;3.30;;;1.23;;
62933;SDS011;49038;47.600;19.242;2023-06-22T07:14:39;2.60;;;1.30;;
62933;SDS011;49038;47.600;19.242;2023-06-22T07:17:41;2.47;;;1.52;;
62933;SDS011;49038;47.600;19.242;2023-06-22T07:20:44;2.87;;;1.33;;
62933;SDS011;49038;47.600;19.242;2023-06-22T07:23:46;3.75;;;1.67;;
62933;SDS011;49038;47.600;19.242;2023-06-22T07:26:48;3.97;;;1.30;;
62933;SDS011;49038;47.600;19.242;2023-06-22T07:29:51;2.95;;;1.23;;
62933;SDS011;49038;47.600;19.242;2023-06-22T07:32:54;3.05;;;1.35;;
62933;SDS011;49038;47.600;19.242;2023-06-22T07:35:56;5.30;;;1.30;;
62933;SDS011;49038;47.600;19.242;2023-06-22T07:38:58;3.40;;;1.55;;
62933;SDS011;49038;47.600;19.242;2023-06-22T07:42:01;2.72;;;1.48;;
62933;SDS011;49038;47.600;19.242;2023-06-22T07:45:03;5.90;;;1.30;;
62933;SDS011;49038;47.600;19.242;2023-06-22T07:48:06;4.45;;;1.30;;
62933;SDS011;49038;47.600;19.242;2023-06-22T07:51:09;4.37;;;1.55;;
62933;SDS011;49038;47.600;19.242;2023-06-22T07:54:14;2.60;;;1.30;;
62933;SDS011;49038;47.600;19.242;2023-06-22T07:57:18;4.45;;;1.23;;
62933;SDS011;49038;47.600;19.242;2023-06-22T08:00:21;4.60;;;1.30;;
62933;SDS011;49038;47.600;19.242;2023-06-22T08:03:23;4.93;;;2.00;;
62933;SDS011;49038;47.600;19.242;2023-06-22T08:06:26;2.47;;;1.02;;
62933;SDS011;49038;47.600;19.242;2023-06-22T08:09:28;2.85;;;1.35;;
62933;SDS011;49038;47.600;19.242;2023-06-22T08:12:31;5.93;;;1.50;;
62933;SDS011;49038;47.600;19.242;2023-06-22T08:15:34;5.03;;;1.40;;
62933;SDS011;49038;47.600;19.242;2023-06-22T08:18:36;4.03;;;1.25;;
62933;SDS011;49038;47.600;19.242;2023-06-22T08:21:39;6.10;;;1.42;;
62933;SDS011;49038;47.600;19.242;2023-06-22T08:24:41;3.83;;;1.58;;
62933;SDS011;49038;47.600;19.242;2023-06-22T08:27:46;6.53;;;1.60;;
62933;SDS011;49038;47.600;19.242;2023-06-22T08:30:51;8.93;;;1.95;;
62933;SDS011;49038;47.600;19.242;2023-06-22T08:33:54;3.10;;;1.65;;
62933;SDS011;49038;47.600;19.242;2023-06-22T08:36:56;5.57;;;2.17;;
62933;SDS011;49038;47.600;19.242;2023-06-22T08:39:58;3.95;;;1.33;;
62933;SDS011;49038;47.600;19.242;2023-06-22T08:43:01;4.32;;;1.60;;
62933;SDS011;49038;47.600;19.242;2023-06-22T08:46:03;3.83;;;1.40;;
62933;SDS011;49038;47.600;19.242;2023-06-22T08:49:06;2.67;;;1.77;;
62933;SDS011;49038;47.600;19.242;2023-06-22T08:52:08;8.77;;;1.27;;
62933;SDS011;49038;47.600;19.242;2023-06-22T08:55:11;3.53;;;1.30;;
62933;SDS011;49038;47.600;19.242;2023-06-22T08:58:13;5.03;;;2.00;;
62933;SDS011;49038;47.600;19.242;2023-06-22T09:01:15;5.82;;;1.70;;
62933;SDS011;49038;47.600;19.242;2023-06-22T09:04:17;5.00;;;2.87;;
62933;SDS011;49038;47.600;19.242;2023-06-22T09:07:20;4.22;;;2.50;;
62933;SDS011;49038;47.600;19.242;2023-06-22T09:10:24;4.25;;;1.77;;
62933;SDS011;49038;47.600;19.242;2023-06-22T09:13:29;4.10;;;1.55;;
62933;SDS011;49038;47.600;19.242;2023-06-22T09:16:33;5.40;;;2.00;;
62933;SDS011;49038;47.600;19.242;2023-06-22T09:19:35;7.22;;;2.00;;
62933;SDS011;49038;47.600;19.242;2023-06-22T09:22:38;2.75;;;1.90;;
62933;SDS011;49038;47.600;19.242;2023-06-22T09:25:40;3.40;;;1.90;;
62933;SDS011;49038;47.600;19.242;2023-06-22T09:28:43;5.93;;;1.98;;
62933;SDS011;49038;47.600;19.242;2023-06-22T09:31:45;7.65;;;2.28;;
62933;SDS011;49038;47.600;19.242;2023-06-22T09:34:47;4.85;;;2.30;;
62933;SDS011;49038;47.600;19.242;2023-06-22T09:37:49;6.12;;;1.92;;
62933;SDS011;49038;47.600;19.242;2023-06-22T09:40:53;4.22;;;2.60;;
62933;SDS011;49038;47.600;19.242;2023-06-22T09:43:55;5.82;;;2.05;;
62933;SDS011;49038;47.600;19.242;2023-06-22T09:46:58;4.25;;;2.12;;
62933;SDS011;49038;47.600;19.242;2023-06-22T09:50:00;3.08;;;2.10;;
62933;SDS011;49038;47.600;19.242;2023-06-22T09:53:02;4.32;;;2.28;;
62933;SDS011;49038;47.600;19.242;2023-06-22T09:56:05;5.87;;;2.62;;
62933;SDS011;49038;47.600;19.242;2023-06-22T09:59:08;4.72;;;2.28;;
62933;SDS011;49038;47.600;19.242;2023-06-22T10:02:19;5.53;;;2.25;;
62933;SDS011;49038;47.600;19.242;2023-06-22T10:05:22;5.07;;;2.28;;
62933;SDS011;49038;47.600;19.242;2023-06-22T10:08:24;4.00;;;2.47;;
62933;SDS011;49038;47.600;19.242;2023-06-22T10:11:27;4.28;;;2.20;;
62933;SDS011;49038;47.600;19.242;2023-06-22T10:14:32;5.10;;;2.50;;
62933;SDS011;49038;47.600;19.242;2023-06-22T10:17:34;10.93;;;2.80;;
62933;SDS011;49038;47.600;19.242;2023-06-22T10:20:36;4.10;;;2.17;;
62933;SDS011;49038;47.600;19.242;2023-06-22T10:23:39;5.05;;;2.55;;
62933;SDS011;49038;47.600;19.242;2023-06-22T10:26:41;4.20;;;2.60;;
62933;SDS011;49038;47.600;19.242;2023-06-22T10:29:43;4.82;;;2.22;;
62933;SDS011;49038;47.600;19.242;2023-06-22T10:32:46;6.37;;;2.78;;
62933;SDS011;49038;47.600;19.242;2023-06-22T10:35:48;7.20;;;3.15;;
62933;SDS011;49038;47.600;19.242;2023-06-22T10:38:50;5.85;;;3.00;;
62933;SDS011;49038;47.600;19.242;2023-06-22T10:41:54;6.30;;;2.60;;
62933;SDS011;49038;47.600;19.242;2023-06-22T10:44:57;3.53;;;2.62;;
62933;SDS011;49038;47.600;19.242;2023-06-22T10:48:00;3.97;;;2.50;;
62933;SDS011;49038;47.600;19.242;2023-06-22T10:51:02;8.00;;;3.10;;
62933;SDS011;49038;47.600;19.242;2023-06-22T10:54:04;4.32;;;2.53;;
62933;SDS011;49038;47.600;19.242;2023-06-22T10:57:06;3.20;;;2.40;;
62933;SDS011;49038;47.600;19.242;2023-06-22T11:00:09;7.43;;;2.75;;
62933;SDS011;49038;47.600;19.242;2023-06-22T11:03:13;5.43;;;2.70;;
62933;SDS011;49038;47.600;19.242;2023-06-22T11:06:16;3.45;;;2.15;;
62933;SDS011;49038;47.600;19.242;2023-06-22T11:09:18;6.47;;;3.12;;
62933;SDS011;49038;47.600;19.242;2023-06-22T11:12:28;7.25;;;2.90;;
62933;SDS011;49038;47.600;19.242;2023-06-22T11:15:30;4.03;;;2.90;;
62933;SDS011;49038;47.600;19.242;2023-06-22T11:18:33;4.93;;;2.60;;
62933;SDS011;49038;47.600;19.242;2023-06-22T11:21:35;6.70;;;3.05;;
62933;SDS011;49038;47.600;19.242;2023-06-22T11:24:37;7.30;;;3.10;;
62933;SDS011;49038;47.600;19.242;2023-06-22T11:27:40;5.43;;;2.40;;
62933;SDS011;49038;47.600;19.242;2023-06-22T11:30:42;6.62;;;3.17;;
62933;SDS011;49038;47.600;19.242;2023-06-22T11:33:44;5.18;;;3.00;;
62933;SDS011;49038;47.600;19.242;2023-06-22T11:36:47;7.97;;;2.92;;
62933;SDS011;49038;47.600;19.242;2023-06-22T11:39:50;5.97;;;2.53;;
62933;SDS011;49038;47.600;19.242;2023-06-22T11:43:06;4.03;;;2.85;;
62933;SDS011;49038;47.600;19.242;2023-06-22T11:46:08;3.78;;;3.10;;
62933;SDS011;49038;47.600;19.242;2023-06-22T11:49:11;4.82;;;3.10;;
62933;SDS011;49038;47.600;19.242;2023-06-22T11:52:13;7.40;;;3.35;;
62933;SDS011;49038;47.600;19.242;2023-06-22T11:55:16;8.05;;;4.40;;
62933;SDS011;49038;47.600;19.242;2023-06-22T11:58:18;4.95;;;2.65;;
62933;SDS011;49038;47.600;19.242;2023-06-22T12:01:20;7.40;;;3.40;;
62933;SDS011;49038;47.600;19.242;2023-06-22T12:04:23;7.57;;;2.87;;
62933;SDS011;49038;47.600;19.242;2023-06-22T12:07:25;10.13;;;3.45;;
62933;SDS011;49038;47.600;19.242;2023-06-22T12:10:27;8.13;;;5.20;;
62933;SDS011;49038;47.600;19.242;2023-06-22T12:13:33;4.32;;;2.60;;
62933;SDS011;49038;47.600;19.242;2023-06-22T12:16:35;4.47;;;2.70;;
62933;SDS011;49038;47.600;19.242;2023-06-22T12:19:37;5.20;;;2.58;;
62933;SDS011;49038;47.600;19.242;2023-06-22T12:22:40;5.20;;;2.78;;
62933;SDS011;49038;47.600;19.242;2023-06-22T12:25:44;4.85;;;2.22;;
62933;SDS011;49038;47.600;19.242;2023-06-22T12:28:47;3.58;;;2.40;;
62933;SDS011;49038;47.600;19.242;2023-06-22T12:31:49;3.95;;;2.62;;
62933;SDS011;49038;47.600;19.242;2023-06-22T12:34:52;4.43;;;2.78;;
62933;SDS011;49038;47.600;19.242;2023-06-22T12:37:54;5.45;;;2.97;;
62933;SDS011;49038;47.600;19.242;2023-06-22T12:40:56;6.40;;;3.10;;
62933;SDS011;49038;47.600;19.242;2023-06-22T12:43:58;6.30;;;2.90;;
62933;SDS011;49038;47.600;19.242;2023-06-22T12:47:01;6.10;;;2.87;;
62933;SDS011;49038;47.600;19.242;2023-06-22T12:50:04;7.75;;;2.65;;
62933;SDS011;49038;47.600;19.242;2023-06-22T12:53:07;6.10;;;2.90;;
62933;SDS011;49038;47.600;19.242;2023-06-22T12:56:09;6.15;;;2.87;;
62933;SDS011;49038;47.600;19.242;2023-06-22T12:59:11;3.95;;;2.67;;
62933;SDS011;49038;47.600;19.242;2023-06-22T13:02:14;4.68;;;3.20;;
62933;SDS011;49038;47.600;19.242;2023-06-22T13:05:16;6.95;;;3.37;;
62933;SDS011;49038;47.600;19.242;2023-06-22T13:08:18;6.45;;;2.87;;
62933;SDS011;49038;47.600;19.242;2023-06-22T13:11:20;5.00;;;2.62;;
62933;SDS011;49038;47.600;19.242;2023-06-22T13:14:23;3.97;;;2.80;;
62933;SDS011;49038;47.600;19.242;2023-06-22T13:17:25;5.47;;;3.00;;
62933;SDS011;49038;47.600;19.242;2023-06-22T13:20:28;5.57;;;3.05;;
62933;SDS011;49038;47.600;19.242;2023-06-22T13:23:31;3.85;;;2.78;;
62933;SDS011;49038;47.600;19.242;2023-06-22T13:26:33;7.53;;;2.85;;
62933;SDS011;49038;47.600;19.242;2023-06-22T13:29:36;6.37;;;2.67;;
62933;SDS011;49038;47.600;19.242;2023-06-22T13:32:38;3.25;;;2.40;;
62933;SDS011;49038;47.600;19.242;2023-06-22T13:35:43;6.95;;;2.58;;
62933;SDS011;49038;47.600;19.242;2023-06-22T13:38:45;5.30;;;2.85;;
62933;SDS011;49038;47.600;19.242;2023-06-22T13:41:48;5.20;;;2.90;;
62933;SDS011;49038;47.600;19.242;2023-06-22T13:44:51;6.43;;;2.90;;
62933;SDS011;49038;47.600;19.242;2023-06-22T13:47:53;5.22;;;2.85;;
62933;SDS011;49038;47.600;19.242;2023-06-22T13:50:55;3.83;;;2.75;;
62933;SDS011;49038;47.600;19.242;2023-06-22T13:53:58;5.32;;;2.65;;
62933;SDS011;49038;47.600;19.242;2023-06-22T13:57:00;5.28;;;2.85;;
62933;SDS011;49038;47.600;19.242;2023-06-22T14:00:02;5.22;;;2.97;;
62933;SDS011;49038;47.600;19.242;2023-06-22T14:03:07;5.05;;;2.70;;
62933;SDS011;49038;47.600;19.242;2023-06-22T14:06:09;7.28;;;2.72;;
62933;SDS011;49038;47.600;19.242;2023-06-22T14:09:13;3.45;;;2.70;;
62933;SDS011;49038;47.600;19.242;2023-06-22T14:12:15;4.78;;;2.67;;
62933;SDS011;49038;47.600;19.242;2023-06-22T14:15:19;5.40;;;3.35;;
62933;SDS011;49038;47.600;19.242;2023-06-22T14:18:21;8.63;;;3.40;;
62933;SDS011;49038;47.600;19.242;2023-06-22T14:21:26;5.22;;;2.80;;
62933;SDS011;49038;47.600;19.242;2023-06-22T14:24:29;5.70;;;3.12;;
62933;SDS011;49038;47.600;19.242;2023-06-22T14:27:32;4.93;;;2.90;;
62933;SDS011;49038;47.600;19.242;2023-06-22T14:30:34;7.05;;;2.80;;
62933;SDS011;49038;47.600;19.242;2023-06-22T14:33:36;6.62;;;2.75;;
62933;SDS011;49038;47.600;19.242;2023-06-22T14:36:38;5.43;;;3.00;;
62933;SDS011;49038;47.600;19.242;2023-06-22T14:39:41;7.47;;;2.97;;
62933;SDS011;49038;47.600;19.242;2023-06-22T14:42:43;4.32;;;3.22;;
62933;SDS011;49038;47.600;19.242;2023-06-22T14:45:45;5.40;;;2.75;;
62933;SDS011;49038;47.600;19.242;2023-06-22T14:48:48;4.30;;;3.25;;
62933;SDS011;49038;47.600;19.242;2023-06-22T14:51:50;3.65;;;2.62;;
62933;SDS011;49038;47.600;19.242;2023-06-22T14:54:52;8.00;;;3.00;;
62933;SDS011;49038;47.600;19.242;2023-06-22T14:57:55;7.80;;;2.83;;
62933;SDS011;49038;47.600;19.242;2023-06-22T15:00:57;4.32;;;2.87;;
62933;SDS011;49038;47.600;19.242;2023-06-22T15:03:59;4.62;;;2.80;;
62933;SDS011;49038;47.600;19.242;2023-06-22T15:07:01;8.43;;;2.60;;
62933;SDS011;49038;47.600;19.242;2023-06-22T15:10:04;6.47;;;3.10;;
62933;SDS011;49038;47.600;19.242;2023-06-22T15:13:06;5.57;;;2.75;;
62933;SDS011;49038;47.600;19.242;2023-06-22T15:16:09;6.22;;;2.90;;
62933;SDS011;49038;47.600;19.242;2023-06-22T15:19:11;5.65;;;2.83;;
62933;SDS011;49038;47.600;19.242;2023-06-22T15:22:14;7.95;;;2.72;;
62933;SDS011;49038;47.600;19.242;2023-06-22T15:25:19;3.42;;;2.53;;
62933;SDS011;49038;47.600;19.242;2023-06-22T15:28:22;4.57;;;2.42;;
62933;SDS011;49038;47.600;19.242;2023-06-22T15:31:24;13.62;;;2.50;;
62933;SDS011;49038;47.600;19.242;2023-06-22T15:34:28;6.37;;;2.50;;
62933;SDS011;49038;47.600;19.242;2023-06-22T15:37:30;10.30;;;2.75;;
62933;SDS011;49038;47.600;19.242;2023-06-22T15:40:32;4.97;;;2.60;;
62933;SDS011;49038;47.600;19.242;2023-06-22T15:43:35;5.28;;;3.10;;
62933;SDS011;49038;47.600;19.242;2023-06-22T15:46:37;6.07;;;2.75;;
62933;SDS011;49038;47.600;19.242;2023-06-22T15:49:39;7.80;;;3.20;;
62933;SDS011;49038;47.600;19.242;2023-06-22T15:52:41;4.68;;;2.80;;
62933;SDS011;49038;47.600;19.242;2023-06-22T15:55:44;6.65;;;2.60;;
62933;SDS011;49038;47.600;19.242;2023-06-22T15:58:48;3.15;;;2.30;;
62933;SDS011;49038;47.600;19.242;2023-06-22T16:01:51;6.00;;;2.55;;
62933;SDS011;49038;47.600;19.242;2023-06-22T16:04:53;6.25;;;2.87;;
62933;SDS011;49038;47.600;19.242;2023-06-22T16:07:58;3.85;;;2.60;;
62933;SDS011;49038;47.600;19.242;2023-06-22T16:11:00;5.07;;;2.80;;
62933;SDS011;49038;47.600;19.242;2023-06-22T16:14:02;7.12;;;2.55;;
62933;SDS011;49038;47.600;19.242;2023-06-22T16:17:05;3.80;;;2.45;;
62933;SDS011;49038;47.600;19.242;2023-06-22T16:20:08;5.85;;;2.40;;
62933;SDS011;49038;47.600;19.242;2023-06-22T16:23:11;4.68;;;2.50;;
62933;SDS011;49038;47.600;19.242;2023-06-22T16:26:14;4.62;;;2.70;;
62933;SDS011;49038;47.600;19.242;2023-06-22T16:29:16;5.47;;;2.65;;
62933;SDS011;49038;47.600;19.242;2023-06-22T16:32:18;7.50;;;2.78;;
62933;SDS011;49038;47.600;19.242;2023-06-22T16:35:21;3.83;;;2.42;;
62933;SDS011;49038;47.600;19.242;2023-06-22T16:38:23;2.87;;;2.40;;
62933;SDS011;49038;47.600;19.242;2023-06-22T16:41:25;3.85;;;2.60;;
62933;SDS011;49038;47.600;19.242;2023-06-22T16:44:28;3.95;;;2.45;;
62933;SDS011;49038;47.600;19.242;2023-06-22T16:47:30;3.42;;;2.60;;
62933;SDS011;49038;47.600;19.242;2023-06-22T16:50:33;3.35;;;2.40;;
62933;SDS011;49038;47.600;19.242;2023-06-22T16:53:35;5.20;;;2.83;;
62933;SDS011;49038;47.600;19.242;2023-06-22T16:56:37;5.45;;;2.80;;
62933;SDS011;49038;47.600;19.242;2023-06-22T16:59:40;5.47;;;3.00;;
62933;SDS011;49038;47.600;19.242;2023-06-22T17:02:43;4.22;;;2.75;;
62933;SDS011;49038;47.600;19.242;2023-06-22T17:05:48;4.03;;;2.53;;
62933;SDS011;49038;47.600;19.242;2023-06-22T17:08:51;3.92;;;2.47;;
62933;SDS011;49038;47.600;19.242;2023-06-22T17:11:53;4.35;;;3.03;;
62933;SDS011;49038;47.600;19.242;2023-06-22T17:14:56;5.03;;;2.62;;
62933;SDS011;49038;47.600;19.242;2023-06-22T17:17:59;6.55;;;2.47;;
62933;SDS011;49038;47.600;19.242;2023-06-22T17:21:02;7.78;;;3.00;;
62933;SDS011;49038;47.600;19.242;2023-06-22T17:24:04;6.43;;;2.72;;
62933;SDS011;49038;47.600;19.242;2023-06-22T17:27:06;5.37;;;3.30;;
62933;SDS011;49038;47.600;19.242;2023-06-22T17:30:10;5.10;;;2.72;;
62933;SDS011;49038;47.600;19.242;2023-06-22T17:33:18;5.65;;;2.90;;
62933;SDS011;49038;47.600;19.242;2023-06-22T17:36:24;9.40;;;2.90;;
62933;SDS011;49038;47.600;19.242;2023-06-22T17:39:27;4.70;;;3.97;;
62933;SDS011;49038;47.600;19.242;2023-06-22T17:42:32;4.30;;;3.40;;
62933;SDS011;49038;47.600;19.242;2023-06-22T17:45:41;3.47;;;2.47;;
62933;SDS011;49038;47.600;19.242;2023-06-22T17:48:45;5.62;;;3.00;;
62933;SDS011;49038;47.600;19.242;2023-06-22T17:51:49;4.75;;;2.65;;
62933;SDS011;49038;47.600;19.242;2023-06-22T17:54:54;5.93;;;2.87;;
62933;SDS011;49038;47.600;19.242;2023-06-22T17:58:04;4.82;;;2.53;;
62933;SDS011;49038;47.600;19.242;2023-06-22T18:01:07;8.32;;;3.55;;
62933;SDS011;49038;47.600;19.242;2023-06-22T18:04:15;6.37;;;2.70;;
62933;SDS011;49038;47.600;19.242;2023-06-22T18:07:20;5.12;;;2.83;;
62933;SDS011;49038;47.600;19.242;2023-06-22T18:10:22;8.65;;;2.83;;
62933;SDS011;49038;47.600;19.242;2023-06-22T18:13:25;6.68;;;3.00;;